createdAt,value
2018-09-01T00:00:13.094Z,55.95
2018-09-01T00:02:47.536Z,57.23
2018-09-01T00:05:20.975Z,57.35
2018-09-01T00:07:51.260Z,57.24
2018-09-01T00:10:21.295Z,56.77
2018-09-01T00:12:51.374Z,54.45
2018-09-01T00:15:22.273Z,54.41
2018-09-01T00:17:53.112Z,54.11
2018-09-01T00:20:23.479Z,54.28
2018-09-01T00:22:54.839Z,53.60
2018-09-01T00:25:25.090Z,54.27
2018-09-01T00:27:55.412Z,53.67
2018-09-01T00:30:25.865Z,53.81
2018-09-01T00:32:55.832Z,53.86
2018-09-01T00:35:26.028Z,58.68
2018-09-01T00:38:01.580Z,59.83
2018-09-01T00:40:31.944Z,60.67
2018-09-01T00:43:02.148Z,61.41
2018-09-01T00:45:32.295Z,59.10
2018-09-01T00:48:02.387Z,62.60
2018-09-01T00:50:33.036Z,63.78
2018-09-01T00:53:03.652Z,65.02
2018-09-01T00:55:34.501Z,58.78
2018-09-01T00:58:04.790Z,57.40
2018-09-01T01:00:34.937Z,56.42
2018-09-01T01:03:05.166Z,55.13
2018-09-01T01:05:35.274Z,54.71
2018-09-01T01:08:06.172Z,54.98
2018-09-01T01:10:36.307Z,54.32
2018-09-01T01:13:06.401Z,54.63
2018-09-01T01:15:36.287Z,54.96
2018-09-01T01:18:06.567Z,54.85
2018-09-01T01:20:37.922Z,54.80
2018-09-01T01:23:07.961Z,54.11
2018-09-01T01:25:37.917Z,54.52
2018-09-01T01:28:08.121Z,53.88
2018-09-01T01:30:38.454Z,54.01
2018-09-01T01:33:08.697Z,54.38
2018-09-01T01:35:39.554Z,54.03
2018-09-01T01:38:10.352Z,54.67
2018-09-01T01:40:40.425Z,53.76
2018-09-01T01:43:10.656Z,53.57
2018-09-01T01:45:41.059Z,53.84
2018-09-01T01:48:11.166Z,53.47
2018-09-01T01:50:41.435Z,54.15
2018-09-01T01:53:11.643Z,54.33
2018-09-01T01:55:41.853Z,53.89
2018-09-01T01:58:11.893Z,54.01
2018-09-01T02:00:42.151Z,54.28
2018-09-01T02:03:12.449Z,54.28
2018-09-01T02:05:42.580Z,53.69
2018-09-01T02:08:12.717Z,54.00
2018-09-01T02:10:43.344Z,53.71
2018-09-01T02:13:13.839Z,53.66
2018-09-01T02:15:43.978Z,54.32
2018-09-01T02:18:14.171Z,53.26
2018-09-01T02:20:44.292Z,52.95
2018-09-01T02:23:14.734Z,52.70
2018-09-01T02:25:45.289Z,52.28
2018-09-01T02:28:15.363Z,52.61
2018-09-01T02:30:45.737Z,53.78
2018-09-01T02:33:16.074Z,53.64
2018-09-01T02:35:46.088Z,54.48
2018-09-01T02:38:17.108Z,54.30
2018-09-01T02:40:47.214Z,54.13
2018-09-01T02:43:17.592Z,54.23
2018-09-01T02:45:47.861Z,53.86
2018-09-01T02:48:18.019Z,53.94
2018-09-01T02:50:48.243Z,53.79
2018-09-01T02:53:19.289Z,53.14
2018-09-01T02:55:49.408Z,52.53
2018-09-01T02:58:20.601Z,52.72
2018-09-01T03:00:55.516Z,53.29
2018-09-01T03:03:26.452Z,53.12
2018-09-01T03:05:56.646Z,52.43
2018-09-01T03:08:26.971Z,52.80
2018-09-01T03:10:57.491Z,52.27
2018-09-01T03:13:29.296Z,52.36
2018-09-01T03:16:00.491Z,52.08
2018-09-01T03:18:30.670Z,52.32
2018-09-01T03:21:00.716Z,52.38
2018-09-01T03:23:30.926Z,53.12
2018-09-01T03:26:01.078Z,52.75
2018-09-01T03:28:31.354Z,53.10
2018-09-01T03:31:01.871Z,53.10
2018-09-01T03:33:31.984Z,53.66
2018-09-01T03:36:02.818Z,53.69
2018-09-01T03:38:34.018Z,54.30
2018-09-01T03:41:04.204Z,53.74
2018-09-01T03:43:35.474Z,54.00
2018-09-01T03:46:05.824Z,54.37
2018-09-01T03:48:36.344Z,54.51
2018-09-01T03:51:07.191Z,53.83
2018-09-01T03:53:37.588Z,53.92
2018-09-01T03:56:07.946Z,53.61
2018-09-01T03:58:38.322Z,53.34
2018-09-01T04:01:08.617Z,52.12
2018-09-01T04:03:39.862Z,52.54
2018-09-01T04:06:10.068Z,51.43
2018-09-01T04:08:40.437Z,51.13
2018-09-01T04:11:10.708Z,49.58
2018-09-01T04:13:41.654Z,50.15
2018-09-01T04:16:11.709Z,49.86
2018-09-01T04:18:41.789Z,50.44
2018-09-01T04:21:12.137Z,49.67
2018-09-01T04:23:42.422Z,49.41
2018-09-01T04:26:12.844Z,49.61
2018-09-01T04:28:43.067Z,50.69
2018-09-01T04:31:13.696Z,49.99
2018-09-01T04:33:44.987Z,49.07
2018-09-01T04:36:15.470Z,48.65
2018-09-01T04:38:57.595Z,48.59
2018-09-01T04:41:28.152Z,47.86
2018-09-01T04:43:59.490Z,47.59
2018-09-01T04:46:29.631Z,46.44
2018-09-01T04:48:59.896Z,46.06
2018-09-01T04:51:30.239Z,44.50
2018-09-01T04:54:00.663Z,45.04
2018-09-01T04:56:30.847Z,46.06
2018-09-01T04:59:01.766Z,46.36
2018-09-01T05:01:31.889Z,47.21
2018-09-01T05:04:03.155Z,48.46
2018-09-01T05:06:34.812Z,49.49
2018-09-01T05:43:46.494Z,40.47
2018-09-01T05:46:16.179Z,38.69
2018-09-01T05:48:46.089Z,35.79
2018-09-01T05:51:15.778Z,35.31
2018-09-01T05:53:45.528Z,35.84
2018-09-01T05:56:15.224Z,33.32
2018-09-01T05:58:44.917Z,32.29
2018-09-01T06:01:14.764Z,33.51
2018-09-01T06:03:47.408Z,31.70
2018-09-01T06:06:17.213Z,29.83
2018-09-01T06:08:47.123Z,30.48
2018-09-01T06:11:16.881Z,29.65
2018-09-01T06:13:46.693Z,29.08
2018-09-01T06:16:18.249Z,30.41
2018-09-01T06:18:48.954Z,30.09
2018-09-01T06:21:19.887Z,30.79
2018-09-01T06:23:50.221Z,33.13
2018-09-01T06:26:21.220Z,32.76
2018-09-01T06:28:54.916Z,31.08
2018-09-01T06:31:25.407Z,29.85
2018-09-01T06:33:55.582Z,28.17
2018-09-01T06:36:25.336Z,28.59
2018-09-01T06:38:56.952Z,28.44
2018-09-01T06:41:26.725Z,28.50
2018-09-01T06:43:56.542Z,29.05
2018-09-01T06:46:26.862Z,29.18
2018-09-01T06:48:57.133Z,30.88
2018-09-01T06:51:27.884Z,31.28
2018-09-01T06:53:57.715Z,30.73
2018-09-01T06:56:30.816Z,30.66
2018-09-01T06:59:01.802Z,30.09
2018-09-01T07:01:31.825Z,30.23
2018-09-01T07:04:02.240Z,30.12
2018-09-01T07:06:32.214Z,34.14
2018-09-01T07:09:01.989Z,31.73
2018-09-01T07:11:31.779Z,30.75
2018-09-01T07:14:02.152Z,30.35
2018-09-01T07:16:31.921Z,29.91
2018-09-01T07:19:02.355Z,30.38
2018-09-01T07:21:32.826Z,29.60
2018-09-01T07:24:02.549Z,31.89
2018-09-01T07:26:32.283Z,33.21
2018-09-01T07:29:02.651Z,34.55
2018-09-01T07:31:33.220Z,37.94
2018-09-01T07:34:03.144Z,36.76
2018-09-01T07:36:33.811Z,37.95
2018-09-01T07:39:06.085Z,38.57
2018-09-01T07:41:35.974Z,41.13
2018-09-01T07:44:07.331Z,40.42
2018-09-01T07:46:38.297Z,40.84
2018-09-01T07:49:09.396Z,41.45
2018-09-01T07:51:40.215Z,41.80
2018-09-01T07:54:10.858Z,41.52
2018-09-01T07:56:41.341Z,41.65
2018-09-01T07:59:12.294Z,42.05
2018-09-01T08:01:46.428Z,41.71
2018-09-01T08:04:16.671Z,43.23
2018-09-01T08:06:46.932Z,44.82
2018-09-01T08:09:17.281Z,44.86
2018-09-01T08:11:56.227Z,45.53
2018-09-01T08:14:26.624Z,45.92
2018-09-01T08:16:57.276Z,46.42
2018-09-01T08:19:27.592Z,46.57
2018-09-01T08:21:57.883Z,45.97
2018-09-01T08:24:29.692Z,46.00
2018-09-01T08:27:00.668Z,46.10
2018-09-01T08:29:31.033Z,45.40
2018-09-01T08:32:01.930Z,45.57
2018-09-01T08:34:32.201Z,45.43
2018-09-01T08:37:02.343Z,46.52
2018-09-01T08:39:33.296Z,45.27
2018-09-01T08:42:03.488Z,46.94
2018-09-01T08:44:33.752Z,47.38
2018-09-01T08:47:06.518Z,46.71
2018-09-01T08:49:38.362Z,43.83
2018-09-01T08:52:08.477Z,45.94
2018-09-01T08:54:39.024Z,45.17
2018-09-01T08:57:09.541Z,44.98
2018-09-01T08:59:40.115Z,43.03
2018-09-01T09:02:10.529Z,43.42
2018-09-01T09:04:40.880Z,44.99
2018-09-01T09:07:15.048Z,43.94
2018-09-01T09:09:45.439Z,43.11
2018-09-01T09:12:17.850Z,43.46
2018-09-01T09:14:48.920Z,44.14
2018-09-01T09:17:19.500Z,44.19
2018-09-01T09:19:51.299Z,43.10
2018-09-01T09:22:22.188Z,44.03
2018-09-01T09:24:52.361Z,43.84
2018-09-01T09:27:23.434Z,44.54
2018-09-01T09:29:54.073Z,45.24
2018-09-01T09:32:24.147Z,45.96
2018-09-01T09:34:54.483Z,44.69
2018-09-01T09:37:24.762Z,45.16
2018-09-01T09:39:55.109Z,44.78
2018-09-01T09:42:25.393Z,44.53
2018-09-01T09:44:56.431Z,44.27
2018-09-01T09:47:28.427Z,43.21
2018-09-01T09:49:59.525Z,41.52
2018-09-01T09:52:29.773Z,42.64
2018-09-01T09:55:00.062Z,43.06
2018-09-01T09:57:30.622Z,43.52
2018-09-01T10:00:00.848Z,42.16
2018-09-01T10:02:31.986Z,41.55
2018-09-01T10:05:02.057Z,42.10
2018-09-01T10:07:33.112Z,42.87
2018-09-01T10:10:04.078Z,42.90
2018-09-01T10:12:34.947Z,43.73
2018-09-01T10:15:08.367Z,44.90
2018-09-01T10:17:39.557Z,44.18
2018-09-01T10:20:09.821Z,45.57
2018-09-01T10:22:39.998Z,45.84
2018-09-01T10:25:10.306Z,45.06
2018-09-01T10:27:40.456Z,46.51
2018-09-01T10:30:11.681Z,45.77
2018-09-01T10:32:42.560Z,48.23
2018-09-01T10:35:12.908Z,48.17
2018-09-01T10:37:43.789Z,50.21
2018-09-01T10:40:14.101Z,49.13
2018-09-01T10:42:44.541Z,47.22
2018-09-01T10:45:16.706Z,46.92
2018-09-01T10:47:46.938Z,48.79
2018-09-01T10:50:17.038Z,44.83
2018-09-01T10:52:47.448Z,48.74
2018-09-01T10:55:17.769Z,50.97
2018-09-01T10:57:48.064Z,50.55
2018-09-01T11:00:21.305Z,51.84
2018-09-01T11:02:53.044Z,52.06
2018-09-01T11:05:24.421Z,54.43
2018-09-01T11:07:54.886Z,55.81
2018-09-01T11:10:26.799Z,57.64
2018-09-01T11:12:56.612Z,57.47
2018-09-01T11:15:26.463Z,57.43
2018-09-01T11:17:56.255Z,62.06
2018-09-01T11:20:26.172Z,65.19
2018-09-01T11:22:56.368Z,61.62
2018-09-01T11:25:27.124Z,64.99
2018-09-01T11:27:58.619Z,69.62
2018-09-01T11:30:28.997Z,67.23
2018-09-01T11:32:59.392Z,67.00
2018-09-01T11:35:29.872Z,68.09
2018-09-01T11:38:01.236Z,67.04
2018-09-01T11:40:31.571Z,67.66
2018-09-01T11:43:02.946Z,67.16
2018-09-01T11:45:33.451Z,67.24
2018-09-01T11:48:04.120Z,67.89
2018-09-01T11:50:35.562Z,68.44
2018-09-01T11:53:05.800Z,69.64
2018-09-01T11:55:36.506Z,68.68
2018-09-01T11:58:10.617Z,69.97
2018-09-01T12:00:40.758Z,68.54
2018-09-01T12:03:11.248Z,69.85
2018-09-01T12:05:41.632Z,69.38
2018-09-01T12:08:12.492Z,68.76
2018-09-01T12:10:42.537Z,68.09
2018-09-01T12:13:14.521Z,67.85
2018-09-01T12:15:46.191Z,68.56
2018-09-01T12:18:15.916Z,67.29
2018-09-01T12:20:47.112Z,68.06
2018-09-01T12:23:17.091Z,67.87
2018-09-01T12:25:48.075Z,66.64
2018-09-01T12:28:18.105Z,68.73
2018-09-01T12:30:48.979Z,67.58
2018-09-01T12:33:20.876Z,68.42
2018-09-01T12:35:52.803Z,69.15
2018-09-01T12:38:22.610Z,72.04
2018-09-01T12:40:54.385Z,73.02
2018-09-01T12:43:24.139Z,74.30
2018-09-01T12:45:56.686Z,74.83
2018-09-01T12:48:26.615Z,76.38
2018-09-01T12:50:56.574Z,76.04
2018-09-01T12:53:26.683Z,77.81
2018-09-01T12:55:57.128Z,77.84
2018-09-01T12:58:27.365Z,77.41
2018-09-01T13:00:57.157Z,77.74
2018-09-01T13:03:30.112Z,79.23
2018-09-01T13:06:00.566Z,79.21
2018-09-01T13:08:31.188Z,79.35
2018-09-01T13:11:01.576Z,81.33
2018-09-01T13:13:34.104Z,82.58
2018-09-01T13:16:06.657Z,81.52
2018-09-01T13:18:38.346Z,82.62
2018-09-01T13:21:11.463Z,83.38
2018-09-01T13:23:42.826Z,83.44
2018-09-01T13:26:14.363Z,84.09
2018-09-01T13:28:44.509Z,86.73
2018-09-01T13:31:15.456Z,87.79
2018-09-01T13:33:47.198Z,89.27
2018-09-01T13:36:17.153Z,87.62
2018-09-01T13:38:47.741Z,87.22
2018-09-01T13:41:17.701Z,88.59
2018-09-01T13:43:48.232Z,86.77
2018-09-01T13:46:19.044Z,90.22
2018-09-01T13:48:49.166Z,90.85
2018-09-01T13:51:19.593Z,91.72
2018-09-01T13:53:50.304Z,91.43
2018-09-01T13:56:21.115Z,91.39
2018-09-01T13:58:51.540Z,90.68
2018-09-01T14:01:22.843Z,93.52
2018-09-01T14:03:53.146Z,93.80
2018-09-01T14:06:23.895Z,95.82
2018-09-01T14:08:54.624Z,95.75
2018-09-01T14:11:25.353Z,96.70
2018-09-01T14:13:55.589Z,97.69
2018-09-01T14:16:26.736Z,96.39
2018-09-01T14:18:56.872Z,95.33
2018-09-01T14:21:28.999Z,95.25
2018-09-01T14:23:59.354Z,94.14
2018-09-01T14:26:30.641Z,95.42
2018-09-01T14:29:01.848Z,94.90
2018-09-01T14:31:32.101Z,96.44
2018-09-01T14:34:03.652Z,97.37
2018-09-01T14:36:34.205Z,96.92
2018-09-01T14:39:04.572Z,97.68
2018-09-01T14:41:34.475Z,98.36
2018-09-01T14:44:04.664Z,97.61
2018-09-01T14:46:35.056Z,98.45
2018-09-01T14:49:05.524Z,98.05
2018-09-01T14:51:36.114Z,100.00
2018-09-01T14:54:07.781Z,100.00
2018-09-01T14:56:38.710Z,100.00
2018-09-01T14:59:10.302Z,100.00
2018-09-01T15:01:40.351Z,100.00
2018-09-01T15:04:10.460Z,100.00
2018-09-01T15:06:45.535Z,100.00
2018-09-01T15:09:23.908Z,100.00
2018-09-01T15:11:53.667Z,100.00
2018-09-01T15:14:23.813Z,100.00
2018-09-01T15:16:55.988Z,100.00
2018-09-01T15:19:46.461Z,100.00
2018-09-01T15:22:17.366Z,100.00
2018-09-01T15:24:47.332Z,100.00
2018-09-01T15:27:17.096Z,100.00
2018-09-01T15:29:47.682Z,100.00
2018-09-01T15:32:17.496Z,100.00
2018-09-01T15:34:47.248Z,100.00
2018-09-01T15:37:18.515Z,100.00
2018-09-01T15:39:48.297Z,100.00
2018-09-01T15:42:18.012Z,100.00
2018-09-01T15:44:48.067Z,100.00
2018-09-01T15:47:18.031Z,100.00
2018-09-01T15:49:48.617Z,100.00
2018-09-01T15:52:18.787Z,100.00
2018-09-01T15:54:48.534Z,100.00
2018-09-01T15:57:18.344Z,100.00
2018-09-01T15:59:48.054Z,100.00
2018-09-01T16:02:19.199Z,100.00
2018-09-01T16:04:48.957Z,100.00
2018-09-01T16:07:18.775Z,100.00
2018-09-01T16:09:49.635Z,100.00
2018-09-01T16:12:20.639Z,100.00
2018-09-01T16:14:50.393Z,100.00
2018-09-01T16:17:20.347Z,100.00
2018-09-01T16:19:50.131Z,100.00
2018-09-01T16:22:20.046Z,100.00
2018-09-01T16:24:49.876Z,100.00
2018-09-01T16:27:19.568Z,100.00
2018-09-01T16:29:49.302Z,100.00
2018-09-01T16:32:19.158Z,100.00
2018-09-01T16:34:48.989Z,100.00
2018-09-01T16:37:18.777Z,100.00
2018-09-01T16:39:48.569Z,100.00
2018-09-01T16:42:18.348Z,100.00
2018-09-01T16:44:48.133Z,100.00
2018-09-01T16:47:17.829Z,100.00
2018-09-01T16:49:47.702Z,100.00
2018-09-01T16:52:17.638Z,100.00
2018-09-01T16:54:47.736Z,100.00
2018-09-01T16:57:17.647Z,100.00
2018-09-01T16:59:47.399Z,100.00
2018-09-01T17:02:17.812Z,100.00
2018-09-01T17:04:47.626Z,100.00
2018-09-01T17:07:20.722Z,100.00
2018-09-01T17:09:50.706Z,100.00
2018-09-01T17:12:20.765Z,100.00
2018-09-01T17:14:52.232Z,100.00
2018-09-01T17:17:22.515Z,100.00
2018-09-01T17:19:52.238Z,100.00
2018-09-01T17:22:21.994Z,100.00
2018-09-01T17:24:51.793Z,100.00
2018-09-01T17:27:21.527Z,100.00
2018-09-01T17:29:51.360Z,100.00
2018-09-01T17:32:21.125Z,100.00
2018-09-01T17:34:51.365Z,100.00
2018-09-01T17:37:21.890Z,100.00
2018-09-01T17:39:51.661Z,100.00
2018-09-01T17:42:21.533Z,100.00
2018-09-01T17:44:51.397Z,100.00
2018-09-01T17:47:21.204Z,100.00
2018-09-01T17:49:51.006Z,100.00
2018-09-01T17:52:23.915Z,100.00
2018-09-01T17:54:54.832Z,100.00
2018-09-01T17:57:24.923Z,100.00
2018-09-01T17:59:55.730Z,100.00
2018-09-01T18:02:26.636Z,100.00
2018-09-01T18:04:56.448Z,100.00
2018-09-01T18:07:26.190Z,100.00
2018-09-01T18:10:01.292Z,100.00
2018-09-01T18:12:31.105Z,100.00
2018-09-01T18:15:00.915Z,100.00
2018-09-01T18:17:30.764Z,100.00
2018-09-01T18:20:00.600Z,100.00
2018-09-01T18:22:30.489Z,100.00
2018-09-01T18:25:01.432Z,100.00
2018-09-01T18:27:31.933Z,100.00
2018-09-01T18:30:02.179Z,100.00
2018-09-01T18:32:32.624Z,100.00
2018-09-01T18:35:04.142Z,100.00
2018-09-01T18:37:34.722Z,100.00
2018-09-01T18:40:05.299Z,100.00
2018-09-01T18:42:36.126Z,100.00
2018-09-01T18:45:07.415Z,99.35
2018-09-01T18:47:38.867Z,98.46
2018-09-01T18:50:15.542Z,95.96
2018-09-01T18:52:46.693Z,94.28
2018-09-01T18:55:17.105Z,91.07
2018-09-01T18:57:47.616Z,88.51
2018-09-01T19:00:17.598Z,85.64
2018-09-01T19:02:48.124Z,83.11
2018-09-01T19:05:19.631Z,82.83
2018-09-01T19:07:51.432Z,81.96
2018-09-01T19:10:21.808Z,80.94
2018-09-01T19:12:56.734Z,80.14
2018-09-01T19:15:27.076Z,79.74
2018-09-01T19:17:58.549Z,77.84
2018-09-01T19:20:30.495Z,75.71
2018-09-01T19:23:00.501Z,72.61
2018-09-01T19:26:01.043Z,73.03
2018-09-01T19:31:22.929Z,71.01
2018-09-01T19:33:53.120Z,72.43
2018-09-01T19:36:23.321Z,73.20
2018-09-01T19:38:53.678Z,73.88
2018-09-01T19:41:25.176Z,75.75
2018-09-01T19:43:55.295Z,72.73
2018-09-01T19:46:25.684Z,72.87
2018-09-01T19:48:57.310Z,74.25
2018-09-01T19:51:28.530Z,73.79
2018-09-01T19:53:58.302Z,72.15
2018-09-01T19:56:28.782Z,71.05
2018-09-01T19:58:58.638Z,72.19
2018-09-01T20:01:28.420Z,72.32
2018-09-01T20:03:58.920Z,73.03
2018-09-01T20:06:29.852Z,74.53
2018-09-01T20:08:59.630Z,76.24
2018-09-01T20:11:29.904Z,77.00
2018-09-01T20:14:00.059Z,76.81
2018-09-01T20:16:30.482Z,76.09
2018-09-01T20:19:00.562Z,76.37
2018-09-01T20:21:30.950Z,75.72
2018-09-01T20:24:01.715Z,75.56
2018-09-01T20:26:32.657Z,74.88
2018-09-01T20:29:02.478Z,73.68
2018-09-01T20:31:33.135Z,71.94
2018-09-01T20:34:03.951Z,71.83
2018-09-01T20:36:34.274Z,72.64
2018-09-01T20:39:04.582Z,72.40
2018-09-01T20:41:35.882Z,71.31
2018-09-01T20:44:06.207Z,70.52
2018-09-01T20:46:37.748Z,69.65
2018-09-01T20:49:08.848Z,71.92
2018-09-01T20:51:38.987Z,69.63
2018-09-01T20:54:09.499Z,65.18
2018-09-01T20:56:41.869Z,65.44
2018-09-01T20:59:11.971Z,65.49
2018-09-01T21:01:42.435Z,65.81
2018-09-01T21:04:12.458Z,66.70
2018-09-01T21:06:42.351Z,66.70
2018-09-01T21:09:12.145Z,67.16
2018-09-01T21:11:45.115Z,67.01
2018-09-01T21:14:15.130Z,66.64
2018-09-01T21:16:45.081Z,67.49
2018-09-01T21:19:14.842Z,67.40
2018-09-01T21:21:44.606Z,68.18
2018-09-01T21:24:14.343Z,68.70
2018-09-01T21:26:44.476Z,67.78
2018-09-01T21:29:14.149Z,66.48
2018-09-01T21:31:45.044Z,66.51
2018-09-01T21:34:14.970Z,66.17
2018-09-01T21:36:44.813Z,65.25
2018-09-01T21:39:14.603Z,65.90
2018-09-01T21:41:44.388Z,65.36
2018-09-01T21:44:14.152Z,65.14
2018-09-01T21:46:45.432Z,63.98
2018-09-01T21:49:15.258Z,63.29
2018-09-01T21:51:46.796Z,62.46
2018-09-01T21:54:17.149Z,63.14
2018-09-01T21:56:46.914Z,63.25
2018-09-01T21:59:17.337Z,62.40
2018-09-01T22:01:52.070Z,62.93
2018-09-01T22:04:22.833Z,62.95
2018-09-01T22:06:52.717Z,63.44
2018-09-01T22:09:22.567Z,62.65
2018-09-01T22:11:52.380Z,62.18
2018-09-01T22:14:22.099Z,64.18
2018-09-01T22:16:51.828Z,64.62
2018-09-01T22:19:21.606Z,65.30
2018-09-01T22:21:51.412Z,65.37
2018-09-01T22:24:21.141Z,63.82
2018-09-01T22:26:50.961Z,62.36
2018-09-01T22:29:20.791Z,63.38
2018-09-01T22:31:50.599Z,63.66
2018-09-01T22:34:20.331Z,63.72
2018-09-01T22:36:50.096Z,63.38
2018-09-01T22:39:19.814Z,62.63
2018-09-01T22:41:49.681Z,63.11
2018-09-01T22:44:19.459Z,62.19
2018-09-01T22:46:49.523Z,61.73
2018-09-01T22:49:19.261Z,60.37
2018-09-01T22:51:50.101Z,59.55
2018-09-01T22:54:19.904Z,61.12
2018-09-01T22:56:49.773Z,58.34
2018-09-01T22:59:19.601Z,56.95
2018-09-01T23:01:49.500Z,56.37
2018-09-01T23:04:19.280Z,56.00
2018-09-01T23:06:49.159Z,57.11
2018-09-01T23:09:18.845Z,56.90
2018-09-01T23:11:49.044Z,56.46
2018-09-01T23:14:18.979Z,57.00
2018-09-01T23:16:48.952Z,55.98
2018-09-01T23:19:19.222Z,55.72
2018-09-01T23:21:49.618Z,55.48
2018-09-01T23:24:19.540Z,55.78
2018-09-01T23:26:49.358Z,54.92
2018-09-01T23:29:19.201Z,54.32
2018-09-01T23:31:48.972Z,54.47
2018-09-01T23:34:19.043Z,53.56
2018-09-01T23:36:48.747Z,53.54
2018-09-01T23:39:18.547Z,53.43
2018-09-01T23:41:48.285Z,53.25
2018-09-01T23:44:18.030Z,55.53
2018-09-01T23:46:47.776Z,64.66
2018-09-01T23:49:17.513Z,67.87
2018-09-01T23:51:47.232Z,61.14
2018-09-01T23:54:16.981Z,55.92
2018-09-01T23:56:46.655Z,55.97
2018-09-01T23:59:16.361Z,57.34
